Time;durP1;ratioP1;P1;durP2;ratioP2;P2;SDS_P1;SDS_P2;PMS_P1;PMS_P2;Temp;Humidity;BMP_temperature;BMP_pressure;BME280_temperature;BME280_humidity;BME280_pressure;Samples;Min_cycle;Max_cycle;Signal;HPM_P1;HPM_P2
2022/08/26 00:00:24;;;;;;;15.37;10.23;;;17.00;99.90;18.40;96730.00;;;;5025278;28;20216;-88
2022/08/26 00:03:15;;;;;;;15.00;9.53;;;17.00;99.90;18.00;96733.00;;;;5031234;28;20228;-87
2022/08/26 00:06:04;;;;;;;14.20;10.67;;;17.00;99.90;17.70;96730.00;;;;5030764;28;20245;-87
2022/08/26 00:08:53;;;;;;;17.50;11.27;;;16.90;99.90;17.70;96736.00;;;;5032128;28;20218;-87
2022/08/26 00:11:43;;;;;;;19.97;11.03;;;16.80;99.90;17.70;96735.00;;;;5041698;23;20233;-86
2022/08/26 00:14:32;;;;;;;13.30;10.03;;;16.70;99.90;17.90;96729.00;;;;5030662;28;20193;-86
2022/08/26 00:17:21;;;;;;;14.77;10.47;;;16.70;99.90;18.00;96728.00;;;;5034424;28;20588;-86
2022/08/26 00:20:12;;;;;;;13.03;9.90;;;16.70;99.90;17.90;96736.00;;;;5055791;28;20212;-86
2022/08/26 00:23:02;;;;;;;13.40;10.20;;;16.70;99.90;17.90;96730.00;;;;5052938;28;20203;-87
2022/08/26 00:25:51;;;;;;;17.63;10.50;;;16.70;99.90;17.80;96725.00;;;;5072386;23;20596;-74
2022/08/26 00:28:42;;;;;;;12.50;10.43;;;16.70;99.90;17.80;96727.00;;;;5062752;28;20708;-74
2022/08/26 00:31:31;;;;;;;13.00;9.50;;;16.70;99.90;17.70;96714.00;;;;5051889;28;20197;-74
2022/08/26 00:34:20;;;;;;;16.47;10.87;;;16.60;99.90;17.60;96715.00;;;;5066674;28;20196;-74
2022/08/26 00:37:09;;;;;;;14.10;11.30;;;16.60;99.90;17.50;96720.00;;;;5056018;28;20243;-73
2022/08/26 00:39:59;;;;;;;15.53;10.03;;;16.60;99.90;17.60;96724.00;;;;5053934;28;20235;-74
2022/08/26 00:42:48;;;;;;;19.90;10.03;;;16.50;99.90;17.50;96717.00;;;;5060627;28;20798;-73
2022/08/26 00:45:47;;;;;;;13.77;11.10;;;16.50;99.90;17.40;96720.00;;;;5051089;28;20221;-74
2022/08/26 00:48:38;;;;;;;13.17;11.80;;;16.40;99.90;17.30;96717.00;;;;5063453;28;20670;-73
2022/08/26 00:51:28;;;;;;;13.73;10.47;;;16.40;99.90;17.40;96712.00;;;;5051670;28;20216;-74
2022/08/26 00:54:20;;;;;;;14.17;11.13;;;16.40;99.90;17.50;96714.00;;;;5050443;28;20700;-74
2022/08/26 00:57:12;;;;;;;17.97;10.70;;;16.40;99.90;17.30;96717.00;;;;5063885;28;20231;-73
2022/08/26 01:00:08;;;;;;;21.97;11.27;;;16.30;99.90;17.30;96707.00;;;;5051811;28;20217;-74
2022/08/26 01:03:02;;;;;;;16.17;11.20;;;16.30;99.90;17.50;96701.00;;;;5058705;28;20202;-74
2022/08/26 01:05:54;;;;;;;15.30;11.77;;;16.30;99.90;17.60;96707.00;;;;5053582;28;20224;-73
2022/08/26 01:08:43;;;;;;;17.50;11.33;;;16.30;99.90;17.60;96709.00;;;;5074152;28;20200;-73
2022/08/26 01:11:33;;;;;;;16.83;11.83;;;16.30;99.90;17.40;96707.00;;;;5065566;28;20200;-73
2022/08/26 01:14:22;;;;;;;16.63;11.60;;;16.30;99.90;17.50;96709.00;;;;5051127;28;20197;-73
2022/08/26 01:17:12;;;;;;;18.93;11.17;;;16.30;99.90;17.60;96705.00;;;;5046370;28;20221;-73
2022/08/26 01:20:11;;;;;;;16.90;12.93;;;16.30;99.90;17.60;96703.00;;;;5060215;28;20247;-74
2022/08/26 01:23:04;;;;;;;12.10;10.33;;;16.40;99.90;17.50;96702.00;;;;5066576;28;20223;-73
2022/08/26 01:25:59;;;;;;;14.57;10.53;;;16.40;99.90;17.60;96705.00;;;;5081744;22;20334;-70
2022/08/26 01:28:50;;;;;;;13.27;10.70;;;16.40;99.90;17.40;96703.00;;;;5037903;28;20193;-70
2022/08/26 01:31:44;;;;;;;15.63;11.90;;;16.40;99.90;17.20;96712.00;;;;5046358;28;20197;-70
2022/08/26 01:34:36;;;;;;;12.83;10.17;;;16.30;99.90;16.90;96701.00;;;;5030251;28;20200;-69
2022/08/26 01:37:33;;;;;;;14.67;10.73;;;16.20;99.90;17.10;96701.00;;;;5034072;28;20222;-70
2022/08/26 01:40:31;;;;;;;15.50;10.37;;;16.10;99.90;17.10;96702.00;;;;5046439;28;20612;-70
2022/08/26 01:43:26;;;;;;;13.17;10.53;;;16.10;99.90;17.10;96710.00;;;;5037575;28;20288;-71
2022/08/26 01:46:16;;;;;;;14.93;11.40;;;16.10;99.90;17.30;96714.00;;;;5033072;28;20220;-70
2022/08/26 01:49:08;;;;;;;13.53;11.17;;;16.10;99.90;17.30;96710.00;;;;5024013;28;20198;-71
2022/08/26 01:51:58;;;;;;;16.37;11.30;;;16.20;99.90;17.10;96713.00;;;;5029474;28;20196;-69
2022/08/26 01:54:47;;;;;;;18.20;12.20;;;16.20;99.90;17.20;96714.00;;;;5047352;28;20216;-69
2022/08/26 01:57:38;;;;;;;14.33;11.37;;;16.20;99.90;17.30;96712.00;;;;5030901;28;20224;-71
2022/08/26 02:00:27;;;;;;;18.63;11.30;;;16.20;99.90;17.60;96707.00;;;;5040611;28;20631;-70
2022/08/26 02:03:21;;;;;;;15.07;11.23;;;16.30;99.90;17.30;96716.00;;;;5045650;28;20694;-70
2022/08/26 02:06:09;;;;;;;13.93;9.23;;;16.30;99.90;16.90;96709.00;;;;5039976;28;20229;-71
2022/08/26 02:09:02;;;;;;;15.83;12.57;;;16.20;99.90;16.70;96715.00;;;;5045468;28;20205;-69
2022/08/26 02:11:51;;;;;;;12.40;10.73;;;16.00;99.90;16.80;96716.00;;;;5044343;28;20199;-69
2022/08/26 02:14:48;;;;;;;11.67;9.73;;;15.90;99.90;16.80;96718.00;;;;5036755;28;20205;-70
2022/08/26 02:17:42;;;;;;;14.27;10.83;;;15.90;99.90;16.60;96715.00;;;;5028231;28;20618;-69
2022/08/26 02:20:32;;;;;;;13.30;11.83;;;15.80;99.90;16.60;96722.00;;;;5030883;28;20890;-69
2022/08/26 02:23:20;;;;;;;14.60;11.10;;;15.80;99.90;16.60;96708.00;;;;5029197;28;20220;-69
2022/08/26 02:26:12;;;;;;;14.10;11.10;;;15.70;99.90;16.70;96713.00;;;;5028890;28;21109;-69
2022/08/26 02:29:07;;;;;;;15.40;11.03;;;15.70;99.90;16.70;96712.00;;;;5030862;28;20244;-71
2022/08/26 02:31:57;;;;;;;20.10;11.10;;;15.70;99.90;16.60;96714.00;;;;5043469;28;20197;-69
2022/08/26 02:34:47;;;;;;;19.63;12.57;;;15.60;99.90;16.90;96704.00;;;;5046077;28;20200;-70
2022/08/26 02:37:36;;;;;;;14.70;11.43;;;15.60;99.90;16.90;96706.00;;;;5045498;28;20209;-70
2022/08/26 02:40:32;;;;;;;19.57;12.40;;;15.70;99.90;16.90;96707.00;;;;5045462;28;20217;-70
2022/08/26 02:43:21;;;;;;;15.13;11.30;;;15.70;99.90;16.80;96699.00;;;;5032741;28;20246;-69
2022/08/26 02:46:10;;;;;;;16.13;11.67;;;15.70;99.90;16.60;96703.00;;;;5030391;28;20216;-70
2022/08/26 02:49:01;;;;;;;13.93;11.07;;;15.70;99.90;16.70;96701.00;;;;5029067;28;20569;-69
2022/08/26 02:51:50;;;;;;;15.23;10.37;;;15.70;99.90;16.90;96685.00;;;;5030063;28;20224;-69
2022/08/26 02:54:39;;;;;;;18.93;12.63;;;15.70;99.90;16.90;96694.00;;;;5030198;28;20588;-69
2022/08/26 02:57:29;;;;;;;11.90;9.60;;;15.70;99.90;16.90;96686.00;;;;5047258;28;20224;-70
2022/08/26 03:00:18;;;;;;;15.23;11.33;;;15.70;99.90;17.10;96691.00;;;;5030673;28;20900;-70
2022/08/26 03:03:08;;;;;;;17.50;12.17;;;15.80;99.90;17.20;96699.00;;;;5038156;28;20575;-70
2022/08/26 03:05:58;;;;;;;13.67;10.73;;;15.90;99.90;17.10;96695.00;;;;5039885;28;20614;-70
2022/08/26 03:08:47;;;;;;;15.70;11.10;;;15.90;99.90;17.10;96697.00;;;;5037103;28;20224;-70
2022/08/26 03:11:37;;;;;;;16.80;11.57;;;15.90;99.90;17.00;96692.00;;;;5029827;28;20236;-70
2022/08/26 03:14:26;;;;;;;19.30;12.20;;;15.90;99.90;16.90;96682.00;;;;5029554;28;20216;-70
2022/08/26 03:17:14;;;;;;;15.40;11.73;;;15.90;99.90;16.70;96697.00;;;;5029236;28;20213;-69
2022/08/26 03:20:07;;;;;;;15.93;11.63;;;15.80;99.90;16.50;96681.00;;;;5038395;28;20232;-70
2022/08/26 03:22:57;;;;;;;16.67;11.53;;;15.80;99.90;16.40;96693.00;;;;5044714;28;20664;-69
2022/08/26 03:25:50;;;;;;;23.00;11.67;;;15.70;99.90;16.20;96685.00;;;;5044395;28;20196;-68
2022/08/26 03:30:38;;;;;;;14.53;10.63;;;15.50;99.90;16.10;96679.00;;;;5039470;28;20189;-71
2022/08/26 03:31:48;;;;;;;13.77;10.67;;;15.40;99.90;16.00;96683.00;;;;5027028;28;20575;-76
2022/08/26 03:34:37;;;;;;;15.53;11.53;;;15.30;99.90;16.10;96682.00;;;;5030409;28;20297;-69
2022/08/26 03:37:26;;;;;;;16.73;10.97;;;15.30;99.90;16.10;96687.00;;;;5029597;28;20212;-69
2022/08/26 03:40:16;;;;;;;18.73;13.70;;;15.30;99.90;16.40;96688.00;;;;5029260;28;20224;-69
2022/08/26 03:43:09;;;;;;;16.10;12.03;;;15.30;99.90;16.60;96690.00;;;;5037988;28;20211;-69
2022/08/26 03:45:58;;;;;;;17.00;12.53;;;15.30;99.90;16.70;96693.00;;;;5030370;28;20707;-70
2022/08/26 03:48:47;;;;;;;16.37;12.13;;;15.40;99.90;16.70;96682.00;;;;5037436;28;20196;-70
2022/08/26 03:51:37;;;;;;;20.87;11.90;;;15.40;99.90;16.80;96683.00;;;;5045518;28;20192;-70
2022/08/26 03:54:26;;;;;;;15.73;11.20;;;15.50;99.90;16.90;96685.00;;;;5042773;28;20192;-70
2022/08/26 03:57:17;;;;;;;18.63;12.30;;;15.50;99.90;16.90;96678.00;;;;5043848;28;20607;-70
2022/08/26 04:00:14;;;;;;;17.93;11.77;;;15.60;99.90;17.10;96677.00;;;;5040370;28;20228;-70
2022/08/26 04:03:03;;;;;;;14.73;12.37;;;15.70;99.90;17.10;96684.00;;;;5039502;28;20668;-69
2022/08/26 04:05:52;;;;;;;17.97;11.80;;;15.70;99.90;17.10;96668.00;;;;5031336;28;20256;-69
2022/08/26 04:08:41;;;;;;;12.33;9.93;;;15.80;99.90;17.10;96674.00;;;;5030840;28;20212;-70
2022/08/26 04:11:32;;;;;;;15.17;11.57;;;15.80;99.90;16.90;96668.00;;;;5030711;28;20201;-70
2022/08/26 04:14:24;;;;;;;20.10;11.00;;;15.80;99.90;17.00;96668.00;;;;5025011;28;20198;-70
2022/08/26 04:17:14;;;;;;;14.60;11.50;;;15.80;99.90;17.00;96675.00;;;;5032176;28;20239;-70
2022/08/26 04:20:05;;;;;;;16.20;11.50;;;15.80;99.90;16.80;96675.00;;;;5038259;28;20221;-70
2022/08/26 04:22:54;;;;;;;12.97;10.47;;;15.70;99.90;16.50;96675.00;;;;5029173;28;20197;-69
2022/08/26 04:25:43;;;;;;;15.10;10.70;;;15.60;99.90;16.40;96665.00;;;;5030785;28;20271;-70
2022/08/26 04:28:32;;;;;;;19.63;12.67;;;15.50;99.90;16.50;96666.00;;;;5037969;28;20209;-74
2022/08/26 04:31:25;;;;;;;19.33;11.50;;;15.50;99.90;16.40;96670.00;;;;5029137;28;20193;-70
2022/08/26 04:34:14;;;;;;;17.07;12.73;;;15.50;99.90;16.30;96666.00;;;;5030715;28;20343;-69
2022/08/26 04:37:02;;;;;;;15.73;10.93;;;15.40;99.90;16.20;96668.00;;;;5030747;28;20221;-71
2022/08/26 04:39:53;;;;;;;15.47;10.83;;;15.40;99.90;16.30;96663.00;;;;5031068;28;20209;-72
2022/08/26 04:42:41;;;;;;;16.67;10.70;;;15.30;99.90;16.50;96657.00;;;;5037835;28;20207;-70
2022/08/26 04:45:30;;;;;;;14.97;11.83;;;15.30;99.90;16.30;96668.00;;;;5049653;28;20204;-70
2022/08/26 04:48:20;;;;;;;15.20;10.40;;;15.40;99.90;16.40;96658.00;;;;5041420;28;20201;-69
2022/08/26 04:51:10;;;;;;;13.97;11.67;;;15.40;99.90;16.30;96660.00;;;;5050433;28;20204;-72
2022/08/26 04:53:59;;;;;;;18.10;12.30;;;15.40;99.90;16.50;96656.00;;;;5050310;28;20193;-69
2022/08/26 04:56:49;;;;;;;14.60;12.03;;;15.40;99.90;16.50;96650.00;;;;5041043;28;20220;-71
2022/08/26 04:59:39;;;;;;;15.10;12.53;;;15.90;99.90;16.80;96654.00;;;;5050874;28;20204;-72
2022/08/26 05:02:27;;;;;;;17.57;13.07;;;15.60;99.90;16.90;96651.00;;;;5044311;28;20576;-70
2022/08/26 05:05:18;;;;;;;16.63;12.27;;;15.70;99.90;16.90;96664.00;;;;5039783;28;20201;-69
2022/08/26 05:08:07;;;;;;;15.13;11.53;;;15.70;99.90;16.60;96663.00;;;;5029763;28;20203;-71
2022/08/26 05:10:56;;;;;;;16.43;12.10;;;15.70;99.90;16.80;96661.00;;;;5029986;28;20197;-70
2022/08/26 05:13:44;;;;;;;20.63;12.93;;;15.70;99.90;17.10;96659.00;;;;5040471;28;20201;-71
2022/08/26 05:16:33;;;;;;;21.23;12.63;;;15.80;99.90;17.20;96662.00;;;;5030147;28;20249;-69
2022/08/26 05:19:23;;;;;;;16.73;12.77;;;15.90;99.90;17.10;96669.00;;;;5038530;28;20207;-69
2022/08/26 05:22:14;;;;;;;16.00;11.87;;;16.00;99.90;17.30;96665.00;;;;5047851;28;20217;-69
2022/08/26 05:25:03;;;;;;;19.63;12.80;;;16.10;99.90;17.50;96667.00;;;;5048593;28;20207;-71
2022/08/26 05:27:52;;;;;;;15.57;11.90;;;16.20;99.90;17.50;96667.00;;;;5041639;28;20720;-69
2022/08/26 05:30:41;;;;;;;15.90;12.17;;;16.30;99.90;17.40;96658.00;;;;5049452;28;20208;-69
2022/08/26 05:33:30;;;;;;;17.10;12.00;;;16.30;99.90;17.50;96654.00;;;;5038053;28;20692;-74
2022/08/26 05:36:21;;;;;;;21.07;12.90;;;16.30;99.90;17.60;96666.00;;;;5043537;28;20220;-69
2022/08/26 05:39:12;;;;;;;15.00;11.53;;;16.40;99.90;17.60;96663.00;;;;5048983;28;20204;-70
2022/08/26 05:42:01;;;;;;;15.23;11.43;;;16.50;99.90;17.90;96672.00;;;;5035913;28;20606;-71
2022/08/26 05:44:53;;;;;;;15.60;12.10;;;16.50;99.90;18.20;96660.00;;;;5051173;28;20208;-70
2022/08/26 05:47:41;;;;;;;16.30;11.07;;;16.60;99.90;18.20;96664.00;;;;5043064;28;20232;-69
2022/08/26 05:50:30;;;;;;;15.83;11.00;;;16.80;99.90;18.20;96661.00;;;;5043704;28;20193;-73
2022/08/26 05:53:21;;;;;;;17.70;11.43;;;16.90;99.90;18.50;96664.00;;;;5042554;28;20588;-70
2022/08/26 05:56:12;;;;;;;15.90;11.80;;;17.00;99.90;18.60;96655.00;;;;5050389;28;20224;-72
2022/08/26 05:59:01;;;;;;;16.03;12.60;;;17.20;99.90;18.80;96657.00;;;;5040401;28;20208;-70
2022/08/26 06:01:50;;;;;;;19.53;10.83;;;17.30;99.90;18.90;96664.00;;;;5048563;28;20212;-69
2022/08/26 06:04:39;;;;;;;14.07;12.30;;;17.40;99.90;19.10;96666.00;;;;5029327;28;20200;-70
2022/08/26 06:10:32;;;;;;;15.93;12.37;;;17.70;99.90;19.50;96653.00;;;;5050022;28;20204;-70
2022/08/26 06:13:25;;;;;;;18.37;12.80;;;17.90;99.90;19.30;96661.00;;;;5048290;28;20204;-70
2022/08/26 06:16:18;;;;;;;15.67;11.77;;;18.00;99.90;19.50;96664.00;;;;5043371;28;20220;-69
2022/08/26 06:19:09;;;;;;;17.87;12.17;;;18.10;99.90;19.70;96661.00;;;;5044672;28;20189;-70
2022/08/26 06:25:36;;;;;;;23.57;12.07;;;18.20;99.90;20.00;96660.00;;;;5029229;28;20232;-70
2022/08/26 06:28:17;;;;;;;16.53;12.60;;;18.60;99.90;20.40;96651.00;;;;5042808;28;20575;-69
2022/08/26 06:31:07;;;;;;;15.70;11.23;;;18.80;99.90;20.50;96650.00;;;;5046001;28;20193;-69
2022/08/26 06:33:57;;;;;;;20.03;12.40;;;18.90;99.90;20.70;96645.00;;;;5047553;28;20197;-70
2022/08/26 06:36:46;;;;;;;20.83;13.00;;;19.10;99.90;21.00;96649.00;;;;5047118;28;20239;-70
2022/08/26 06:39:35;;;;;;;19.67;11.40;;;19.30;99.90;21.10;96644.00;;;;5032054;28;20201;-70
2022/08/26 06:42:24;;;;;;;20.17;12.73;;;19.40;99.90;21.30;96647.00;;;;5033312;28;20220;-70
2022/08/26 06:45:12;;;;;;;18.43;12.83;;;19.60;99.90;21.40;96651.00;;;;5026312;28;20201;-70
2022/08/26 06:48:03;;;;;;;17.53;11.30;;;19.70;99.90;21.50;96648.00;;;;5037398;28;20205;-69
2022/08/26 06:51:03;;;;;;;20.37;12.47;;;19.80;99.90;21.60;96642.00;;;;5043948;28;20200;-70
2022/08/26 06:53:54;;;;;;;16.40;11.97;;;20.00;99.90;21.80;96650.00;;;;5031552;28;20582;-70
2022/08/26 06:56:43;;;;;;;18.97;11.47;;;20.10;99.90;22.00;96650.00;;;;5032434;28;20243;-70
2022/08/26 06:59:32;;;;;;;14.30;11.27;;;20.30;99.90;22.00;96648.00;;;;5040133;28;20577;-70
2022/08/26 07:02:21;;;;;;;15.07;11.37;;;20.40;99.90;22.20;96641.00;;;;5030602;28;20247;-70
2022/08/26 07:05:12;;;;;;;16.03;11.47;;;20.60;99.90;22.20;96644.00;;;;5031135;28;20578;-74
2022/08/26 07:08:01;;;;;;;17.50;11.63;;;20.70;99.90;22.50;96639.00;;;;5037654;28;20216;-71
2022/08/26 07:10:49;;;;;;;13.33;11.37;;;20.80;99.90;22.50;96638.00;;;;5029597;28;20201;-71
2022/08/26 07:13:39;;;;;;;19.13;12.90;;;20.90;99.90;22.60;96639.00;;;;5040514;28;20231;-70
2022/08/26 07:16:28;;;;;;;15.50;12.33;;;21.00;99.90;22.80;96638.00;;;;5039356;28;20213;-70
2022/08/26 07:19:18;;;;;;;15.97;12.77;;;21.10;99.90;23.00;96629.00;;;;5035213;28;20205;-70
2022/08/26 07:22:08;;;;;;;20.77;13.33;;;21.30;99.90;23.10;96628.00;;;;5028070;28;20217;-70
2022/08/26 07:24:57;;;;;;;18.03;11.63;;;21.40;99.90;23.20;96637.00;;;;5032329;28;20205;-70
2022/08/26 07:27:46;;;;;;;17.03;11.80;;;21.50;99.90;23.60;96627.00;;;;5059816;23;20232;-72
2022/08/26 07:30:40;;;;;;;18.23;12.20;;;21.70;99.90;24.00;96623.00;;;;5038275;28;20201;-73
2022/08/26 07:33:29;;;;;;;15.63;10.87;;;21.90;99.90;24.00;96621.00;;;;5039132;28;20223;-71
2022/08/26 07:36:21;;;;;;;19.70;12.23;;;22.10;99.90;24.30;96620.00;;;;5044187;28;20927;-72
2022/08/26 07:39:11;;;;;;;17.00;11.60;;;22.30;99.90;24.50;96623.00;;;;5044124;28;20569;-72
2022/08/26 07:42:02;;;;;;;15.27;11.63;;;22.50;99.90;24.70;96614.00;;;;5040552;28;20217;-72
2022/08/26 07:44:51;;;;;;;16.23;11.07;;;22.70;99.90;24.80;96619.00;;;;5037862;28;20193;-71
2022/08/26 07:47:40;;;;;;;18.33;11.20;;;22.90;99.90;24.90;96616.00;;;;5044003;28;20221;-71
2022/08/26 07:50:29;;;;;;;14.23;10.47;;;23.00;99.90;25.10;96614.00;;;;5042967;28;20211;-72
2022/08/26 07:53:20;;;;;;;13.97;10.57;;;23.20;99.90;25.40;96621.00;;;;5037998;28;20224;-72
2022/08/26 07:56:10;;;;;;;14.33;10.07;;;23.30;99.90;25.30;96615.00;;;;5040109;28;20198;-71
2022/08/26 07:58:59;;;;;;;14.07;10.63;;;23.50;99.90;25.50;96611.00;;;;5041489;28;20201;-72
2022/08/26 08:01:48;;;;;;;18.40;11.57;;;23.60;99.90;25.80;96612.00;;;;5037153;28;20195;-72
2022/08/26 08:04:37;;;;;;;17.57;11.30;;;23.70;99.90;25.90;96608.00;;;;5036716;28;20200;-72
2022/08/26 08:07:26;;;;;;;16.30;10.90;;;23.90;99.90;26.10;96610.00;;;;5039791;28;20775;-72
2022/08/26 08:10:21;;;;;;;13.20;10.40;;;24.10;99.90;26.30;96613.00;;;;5037441;28;20197;-72
2022/08/26 08:13:13;;;;;;;13.60;9.90;;;24.20;99.90;26.40;96611.00;;;;5035833;28;20194;-71
2022/08/26 08:16:03;;;;;;;17.13;11.00;;;24.40;99.90;26.50;96615.00;;;;5040095;28;20205;-72
2022/08/26 08:18:52;;;;;;;14.53;10.03;;;24.50;99.90;26.80;96612.00;;;;5043385;28;20211;-72
2022/08/26 08:21:41;;;;;;;11.73;10.13;;;24.70;99.90;26.80;96607.00;;;;5042744;28;20202;-72
2022/08/26 08:24:29;;;;;;;17.97;12.03;;;24.80;99.90;26.90;96608.00;;;;5040875;28;20198;-71
2022/08/26 08:27:18;;;;;;;17.30;9.13;;;24.90;99.90;27.00;96608.00;;;;5048988;28;20239;-72
2022/08/26 08:30:13;;;;;;;15.37;10.00;;;25.00;99.90;27.00;96598.00;;;;5067344;28;20197;-72
2022/08/26 08:33:02;;;;;;;17.00;10.97;;;25.20;99.90;27.30;96609.00;;;;5062630;28;20205;-72
2022/08/26 08:35:50;;;;;;;14.70;9.13;;;25.30;99.90;27.40;96611.00;;;;5063910;28;20209;-72
2022/08/26 08:38:39;;;;;;;10.07;8.97;;;25.40;99.90;27.70;96596.00;;;;5056041;28;20222;-72
2022/08/26 08:41:48;;;;;;;17.27;9.63;;;25.60;99.90;27.80;96599.00;;;;5055795;28;20195;-71
2022/08/26 08:44:41;;;;;;;17.57;10.40;;;25.70;99.90;28.00;96602.00;;;;5057364;28;20200;-72
2022/08/26 08:47:36;;;;;;;17.23;10.67;;;25.90;99.90;28.20;96602.00;;;;5061864;28;20221;-72
2022/08/26 08:50:29;;;;;;;14.43;9.30;;;26.10;99.90;28.30;96593.00;;;;5062867;28;20204;-72
2022/08/26 08:53:22;;;;;;;13.17;9.00;;;26.20;99.90;28.30;96597.00;;;;5063375;28;20217;-71
2022/08/26 08:56:20;;;;;;;14.73;9.07;;;26.30;99.90;28.60;96596.00;;;;5064321;28;20221;-72
2022/08/26 08:59:16;;;;;;;9.10;8.03;;;26.50;99.90;28.70;96592.00;;;;5059291;28;20201;-72
2022/08/26 09:02:15;;;;;;;13.07;8.93;;;26.60;99.90;29.00;96608.00;;;;5056737;28;20211;-72
2022/08/26 09:05:14;;;;;;;10.77;8.40;;;26.80;99.90;29.20;96590.00;;;;5058006;28;20202;-72
2022/08/26 09:08:07;;;;;;;12.73;8.40;;;27.00;99.90;29.40;96598.00;;;;5050492;28;20222;-72
2022/08/26 09:10:59;;;;;;;9.07;6.80;;;27.10;99.90;29.40;96590.00;;;;5064726;28;20198;-72
2022/08/26 09:13:52;;;;;;;13.70;6.60;;;27.30;99.90;29.50;96591.00;;;;5067278;28;20206;-72
2022/08/26 09:16:50;;;;;;;9.30;6.50;;;27.40;99.90;29.70;96591.00;;;;5058819;28;20228;-72
2022/08/26 09:19:43;;;;;;;13.30;7.37;;;27.60;99.90;29.50;96589.00;;;;5061619;28;20200;-72
2022/08/26 09:22:37;;;;;;;9.00;6.90;;;27.50;99.90;29.50;96586.00;;;;5059801;28;20226;-72
2022/08/26 09:25:26;;;;;;;12.50;6.97;;;27.60;99.90;29.80;96589.00;;;;5060055;28;20201;-72
2022/08/26 09:28:18;;;;;;;10.57;6.90;;;27.70;99.90;30.00;96585.00;;;;5054505;28;20619;-72
2022/08/26 09:31:16;;;;;;;10.90;7.67;;;27.90;99.90;30.10;96581.00;;;;5057584;28;20206;-72
2022/08/26 09:34:14;;;;;;;10.97;6.30;;;28.00;99.90;30.00;96588.00;;;;5056034;28;20211;-72
2022/08/26 09:37:03;;;;;;;8.43;6.27;;;28.10;99.90;29.60;96583.00;;;;5060427;28;20226;-72
2022/08/26 09:39:53;;;;;;;10.80;5.97;;;28.10;99.90;30.10;96573.00;;;;5061318;28;20207;-71
2022/08/26 09:42:42;;;;;;;8.07;6.13;;;28.20;99.90;30.70;96582.00;;;;5055911;28;20225;-71
2022/08/26 09:45:30;;;;;;;11.27;6.00;;;28.40;99.90;30.80;96584.00;;;;5060285;28;20195;-72
2022/08/26 09:48:30;;;;;;;8.77;6.07;;;28.60;99.90;30.90;96582.00;;;;5059566;28;20331;-72
2022/08/26 09:51:31;;;;;;;8.95;5.53;;;28.80;99.90;31.00;96567.00;;;;5059732;28;20195;-72
2022/08/26 09:54:26;;;;;;;9.17;7.10;;;29.00;99.10;31.10;96592.00;;;;5053344;28;20205;-72
2022/08/26 09:57:28;;;;;;;10.50;6.82;;;29.10;98.30;31.10;96569.00;;;;5062437;28;20233;-72
2022/08/26 10:00:31;;;;;;;11.75;7.03;;;29.10;98.80;31.60;96575.00;;;;5067893;28;20209;-72
2022/08/26 10:03:27;;;;;;;11.47;6.70;;;29.30;99.00;31.80;96568.00;;;;5050307;28;20215;-72
2022/08/26 10:06:25;;;;;;;9.95;7.18;;;29.60;97.20;31.50;96572.00;;;;5057580;28;20238;-72
2022/08/26 10:09:18;;;;;;;8.52;6.63;;;29.70;97.50;31.60;96557.00;;;;5051101;28;20192;-72
2022/08/26 10:12:12;;;;;;;10.38;6.55;;;29.70;96.20;32.40;96571.00;;;;5061668;28;20705;-72
2022/08/26 10:15:09;;;;;;;8.77;6.25;;;29.90;97.70;32.10;96565.00;;;;5056834;28;20189;-72
2022/08/26 10:18:06;;;;;;;7.97;7.18;;;30.00;95.50;32.20;96564.00;;;;5056684;28;20697;-72
2022/08/26 10:21:03;;;;;;;12.25;7.90;;;30.10;94.90;31.70;96558.00;;;;5054362;28;20208;-72
2022/08/26 10:23:57;;;;;;;11.98;5.72;;;30.10;94.20;31.20;96552.00;;;;5064331;28;20246;-72
2022/08/26 10:26:58;;;;;;;11.73;6.30;;;30.00;92.00;32.30;96548.00;;;;5061224;28;20237;-72
2022/08/26 10:29:52;;;;;;;8.15;6.53;;;30.00;93.00;32.30;96551.00;;;;5049505;28;20204;-72
2022/08/26 10:32:46;;;;;;;11.68;6.28;;;30.20;93.30;32.40;96547.00;;;;5048935;28;20194;-72
2022/08/26 10:35:40;;;;;;;9.55;6.40;;;30.40;93.20;32.80;96532.00;;;;5065235;28;20305;-72
2022/08/26 10:38:36;;;;;;;10.38;7.45;;;30.60;92.50;33.10;96535.00;;;;5059281;28;20199;-72
2022/08/26 10:41:32;;;;;;;8.10;6.00;;;30.70;91.20;32.20;96540.00;;;;5051681;28;20574;-72
2022/08/26 10:44:22;;;;;;;6.30;5.57;;;30.80;86.20;32.50;96530.00;;;;5057626;28;20225;-72
2022/08/26 10:47:19;;;;;;;7.82;5.82;;;30.70;85.40;32.30;96531.00;;;;5057548;28;20729;-70
2022/08/26 10:50:11;;;;;;;6.32;5.60;;;30.70;86.70;32.20;96531.00;;;;5075535;28;20198;-71
2022/08/26 10:53:06;;;;;;;14.23;7.00;;;30.70;82.60;32.30;96531.00;;;;5061315;28;20680;-71
2022/08/26 10:56:03;;;;;;;11.88;7.38;;;30.70;86.50;32.60;96527.00;;;;5060328;28;20715;-70
2022/08/26 10:59:04;;;;;;;7.53;6.00;;;30.70;84.50;33.90;96495.00;;;;5061142;28;20206;-71
2022/08/26 11:02:03;;;;;;;8.65;6.32;;;31.00;87.00;34.00;96512.00;;;;5059105;28;20206;-72
2022/08/26 11:04:56;;;;;;;13.38;6.60;;;31.50;84.70;33.80;96489.00;;;;5056896;28;20219;-73
2022/08/26 11:07:51;;;;;;;12.13;7.30;;;31.70;84.50;34.00;96511.00;;;;5051659;28;20221;-73
2022/08/26 11:11:04;;;;;;;8.40;5.88;;;31.90;83.70;34.70;96492.00;;;;5063570;28;20689;-73
2022/08/26 11:14:04;;;;;;;17.63;6.45;;;32.20;83.60;34.30;96486.00;;;;5060062;28;20198;-73
2022/08/26 11:16:55;;;;;;;9.75;6.88;;;32.50;81.60;34.20;96493.00;;;;5063227;28;20226;-72
2022/08/26 11:20:03;;;;;;;8.55;6.68;;;32.70;80.70;34.30;96499.00;;;;5061321;28;20191;-73
2022/08/26 11:23:35;;;;;;;11.52;5.43;;;32.70;79.50;33.90;96493.00;;;;5060055;28;20214;-73
2022/08/26 11:26:35;;;;;;;8.77;5.20;;;32.70;77.20;33.40;96486.00;;;;5062667;28;20647;-72
2022/08/26 11:30:00;;;;;;;7.63;5.20;;;32.40;76.70;34.50;96484.00;;;;5061406;28;20210;-73
2022/08/26 11:32:52;;;;;;;10.07;5.78;;;32.50;77.30;34.30;96489.00;;;;5071997;28;20577;-73
2022/08/26 11:35:50;;;;;;;11.15;6.20;;;32.60;76.40;35.00;96479.00;;;;5059957;28;20692;-73
2022/08/26 11:38:43;;;;;;;13.02;6.03;;;32.80;75.00;34.40;96479.00;;;;5062727;28;20199;-73
2022/08/26 11:41:34;;;;;;;7.53;6.18;;;32.90;74.20;35.20;96480.00;;;;5053808;28;20203;-73
2022/08/26 11:44:26;;;;;;;11.55;5.72;;;33.10;74.90;34.60;96471.00;;;;5060464;28;20235;-73
2022/08/26 11:47:17;;;;;;;12.43;5.38;;;33.20;70.50;33.20;96468.00;;;;5068534;28;20219;-72
2022/08/26 11:50:10;;;;;;;10.73;6.45;;;32.40;71.40;33.20;96470.00;;;;5063585;28;20193;-72
2022/08/26 11:53:03;;;;;;;9.80;5.25;;;32.30;72.40;34.40;96468.00;;;;5058360;28;20215;-73
2022/08/26 11:55:57;;;;;;;10.77;5.97;;;32.40;70.10;34.20;96473.00;;;;5061845;28;20210;-73
2022/08/26 11:58:48;;;;;;;8.70;6.22;;;32.50;70.50;33.10;96457.00;;;;5056852;28;20203;-73
2022/08/26 12:01:40;;;;;;;13.02;6.10;;;32.40;70.70;33.60;96457.00;;;;5067082;28;20200;-73
2022/08/26 12:04:34;;;;;;;8.88;5.57;;;32.20;70.60;35.60;96468.00;;;;5061079;28;20782;-73
2022/08/26 12:07:26;;;;;;;9.85;6.10;;;32.40;72.80;36.70;96457.00;;;;5057961;28;20226;-73
2022/08/26 12:10:28;;;;;;;8.35;5.07;;;33.10;73.30;34.20;96455.00;;;;5068831;28;20203;-72
2022/08/26 12:13:23;;;;;;;8.75;5.05;;;32.90;67.00;34.90;96446.00;;;;5070180;28;20206;-73
2022/08/26 12:16:12;;;;;;;10.13;5.75;;;33.10;65.50;36.40;96454.00;;;;5069491;28;20643;-74
2022/08/26 12:19:01;;;;;;;13.23;5.43;;;33.30;67.50;34.40;96434.00;;;;5053238;28;20803;-72
2022/08/26 12:21:50;;;;;;;13.65;5.13;;;33.50;63.10;35.50;96443.00;;;;5070001;28;20615;-72
2022/08/26 12:24:44;;;;;;;8.57;5.47;;;33.40;62.60;36.60;96439.00;;;;5050891;28;20228;-72
2022/08/26 12:27:35;;;;;;;8.05;4.88;;;33.70;64.20;37.90;96440.00;;;;5051388;28;20239;-73
2022/08/26 12:30:25;;;;;;;8.60;4.30;;;34.20;65.40;37.80;96444.00;;;;5058890;28;20203;-72
2022/08/26 12:33:16;;;;;;;8.60;5.70;;;34.70;63.30;37.40;96431.00;;;;5070552;28;20199;-72
2022/08/26 12:36:06;;;;;;;8.07;5.57;;;35.00;60.60;36.60;96426.00;;;;5089652;28;20579;-72